createdAt,value
2022-08-11T13:02:47.792Z,1013.41
2022-08-11T13:03:52.302Z,1013.44
2022-08-11T13:04:48.972Z,1013.46
2022-08-11T13:05:49.453Z,1013.45
2022-08-11T13:06:48.766Z,1013.39
2022-08-11T13:07:50.666Z,1013.39
2022-08-11T13:08:48.943Z,1013.42
2022-08-11T13:09:48.801Z,1013.34
2022-08-11T13:10:48.742Z,1013.33
2022-08-11T13:11:56.247Z,1013.36
2022-08-11T13:12:48.942Z,1013.31
2022-08-11T13:13:55.084Z,1013.33
2022-08-11T13:14:48.773Z,1013.39
2022-08-11T13:15:49.019Z,1013.25
2022-08-11T13:16:48.631Z,1013.26
2022-08-11T13:17:48.761Z,1013.24
2022-08-11T13:18:48.740Z,1013.25
2022-08-11T13:19:49.858Z,1013.25
2022-08-11T13:20:48.919Z,1013.23
2022-08-11T13:21:48.727Z,1013.21
2022-08-11T13:22:48.749Z,1013.19
2022-08-11T13:23:59.617Z,1013.24
2022-08-11T13:24:49.007Z,1013.16
2022-08-11T13:25:48.592Z,1013.14
2022-08-11T13:26:50.313Z,1013.12
2022-08-11T13:27:48.527Z,1013.16
2022-08-11T13:28:48.655Z,1013.14
2022-08-11T13:29:48.528Z,1013.22
2022-08-11T13:30:48.513Z,1013.13
2022-08-11T13:31:48.562Z,1013.17
2022-08-11T13:32:48.434Z,1013.18
2022-08-11T13:33:48.396Z,1013.14
2022-08-11T13:34:48.563Z,1013.14
2022-08-11T13:35:48.851Z,1013.11
2022-08-11T13:36:48.756Z,1013.10
2022-08-11T13:38:17.346Z,1013.07
2022-08-11T13:38:50.164Z,1013.11
2022-08-11T13:39:48.681Z,1013.11
2022-08-11T13:40:55.581Z,1013.10
2022-08-11T13:41:48.476Z,1013.14
2022-08-11T13:42:48.381Z,1013.12
2022-08-11T13:43:48.563Z,1013.15
2022-08-11T13:44:48.390Z,1013.14
2022-08-11T13:45:48.532Z,1013.17
2022-08-11T13:46:48.384Z,1013.13
2022-08-11T13:47:48.282Z,1013.11
2022-08-11T13:48:48.316Z,1013.09
2022-08-11T13:49:48.597Z,1013.07
2022-08-11T13:50:48.218Z,1013.10
2022-08-11T13:51:48.146Z,1013.12
2022-08-11T13:52:52.685Z,1013.13
2022-08-11T13:53:48.246Z,1013.08
2022-08-11T13:54:48.160Z,1013.09
2022-08-11T13:55:51.714Z,1013.05
2022-08-11T13:56:48.114Z,1013.12
2022-08-11T13:58:08.080Z,1013.07
2022-08-11T13:58:53.829Z,1013.08
2022-08-11T13:59:52.859Z,1013.03
2022-08-11T14:00:52.643Z,1013.01
2022-08-11T14:02:19.183Z,1013.01
2022-08-11T14:02:49.233Z,1012.98
2022-08-11T14:04:31.416Z,1012.94
2022-08-11T14:04:48.555Z,1012.94
2022-08-11T14:05:48.473Z,1012.93
2022-08-11T14:06:48.055Z,1012.95
2022-08-11T14:07:48.099Z,1012.93
2022-08-11T14:08:48.022Z,1012.91
2022-08-11T14:09:48.265Z,1012.91
2022-08-11T14:10:48.016Z,1012.90
2022-08-11T14:12:21.816Z,1012.89
2022-08-11T14:12:47.963Z,1012.87
2022-08-11T14:13:48.491Z,1012.90
2022-08-11T14:14:48.191Z,1012.87
2022-08-11T14:15:48.133Z,1012.88
2022-08-11T14:16:47.817Z,1012.91
2022-08-11T14:17:49.286Z,1012.90
2022-08-11T14:18:47.957Z,1012.90
2022-08-11T14:19:47.882Z,1012.87
2022-08-11T14:20:48.005Z,1012.83
2022-08-11T14:21:47.890Z,1012.84
2022-08-11T14:22:48.935Z,1012.79
2022-08-11T14:23:48.713Z,1012.84
2022-08-11T14:24:48.402Z,1012.81
2022-08-11T14:26:00.841Z,1012.81
2022-08-11T14:26:47.736Z,1012.83
2022-08-11T14:28:33.533Z,1012.80
2022-08-11T14:28:48.224Z,1012.78
2022-08-11T14:29:49.097Z,1012.84
2022-08-11T14:30:47.837Z,1012.84
2022-08-11T14:31:48.175Z,1012.78
2022-08-11T14:32:55.397Z,1012.77
2022-08-11T14:34:00.973Z,1012.75
2022-08-11T14:34:47.701Z,1012.72
2022-08-11T14:35:48.892Z,1012.77
2022-08-11T14:36:47.585Z,1012.71
2022-08-11T14:37:48.125Z,1012.77
2022-08-11T14:38:48.000Z,1012.70
2022-08-11T14:39:47.913Z,1012.70
2022-08-11T14:40:48.364Z,1012.71
2022-08-11T14:42:11.754Z,1012.72
2022-08-11T14:42:47.472Z,1012.67
2022-08-11T14:44:10.366Z,1012.71
2022-08-11T14:44:47.454Z,1012.74
2022-08-11T14:45:58.183Z,1012.79
2022-08-11T14:46:49.523Z,1012.77
2022-08-11T14:47:50.457Z,1012.78
2022-08-11T14:48:47.567Z,1012.79
2022-08-11T14:50:10.339Z,1012.72
2022-08-11T14:50:47.429Z,1012.72
2022-08-11T14:51:47.895Z,1012.74
2022-08-11T14:52:47.542Z,1012.69
2022-08-11T14:53:58.369Z,1012.67
2022-08-11T14:54:47.488Z,1012.66
2022-08-11T14:55:48.112Z,1012.67
2022-08-11T14:56:47.384Z,1012.69
2022-08-11T14:58:04.899Z,1012.64
2022-08-11T14:58:47.289Z,1012.66
2022-08-11T14:59:47.286Z,1012.63
2022-08-11T15:00:47.404Z,1012.62
2022-08-11T15:01:47.260Z,1012.62
2022-08-11T15:02:47.237Z,1012.60
2022-08-11T15:04:34.248Z,1012.61
2022-08-11T15:04:47.224Z,1012.59
2022-08-11T15:05:56.717Z,1012.61
2022-08-11T15:06:47.215Z,1012.60
2022-08-11T15:07:47.139Z,1012.63
2022-08-11T15:08:47.466Z,1012.58
2022-08-11T15:10:11.779Z,1012.54
2022-08-11T15:10:47.152Z,1012.51
2022-08-11T15:11:47.224Z,1012.48
2022-08-11T15:12:47.080Z,1012.49
2022-08-11T15:13:47.075Z,1012.46
2022-08-11T15:14:47.064Z,1012.48
2022-08-11T15:15:47.063Z,1012.47
2022-08-11T15:16:47.041Z,1012.45
2022-08-11T15:17:47.119Z,1012.45
2022-08-11T15:18:47.020Z,1012.45
2022-08-11T15:19:46.996Z,1012.42
2022-08-11T15:20:46.979Z,1012.40
2022-08-11T15:21:46.984Z,1012.38
2022-08-11T15:22:47.003Z,1012.39
2022-08-11T15:23:46.938Z,1012.38
2022-08-11T15:24:46.916Z,1012.40
2022-08-11T15:25:46.904Z,1012.36
2022-08-11T15:26:46.915Z,1012.38
2022-08-11T15:27:46.922Z,1012.38
2022-08-11T15:28:46.869Z,1012.36
2022-08-11T15:29:46.921Z,1012.34
2022-08-11T15:30:46.846Z,1012.36
2022-08-11T15:31:49.287Z,1012.36
2022-08-11T15:32:46.863Z,1012.32
2022-08-11T15:33:46.790Z,1012.30
2022-08-11T15:34:46.781Z,1012.33
2022-08-11T15:35:46.760Z,1012.33
2022-08-11T15:36:46.760Z,1012.31
2022-08-11T15:37:46.751Z,1012.28
2022-08-11T15:38:46.754Z,1012.30
2022-08-11T15:39:46.771Z,1012.25
2022-08-11T15:40:46.731Z,1012.27
2022-08-11T15:41:54.669Z,1012.23
2022-08-11T15:42:46.689Z,1012.15
2022-08-11T15:43:46.674Z,1012.17
2022-08-11T15:45:02.207Z,1012.21
2022-08-11T15:45:46.730Z,1012.17
2022-08-11T15:46:46.701Z,1012.15
2022-08-11T15:47:46.648Z,1012.14
2022-08-11T15:48:46.639Z,1012.17
2022-08-11T15:50:11.958Z,1012.19
2022-08-11T15:50:46.602Z,1012.15
2022-08-11T15:51:46.701Z,1012.13
2022-08-11T15:52:46.556Z,1012.14
2022-08-11T15:53:46.542Z,1012.13
2022-08-11T15:54:46.534Z,1012.11
2022-08-11T15:55:46.538Z,1012.13
2022-08-11T15:56:46.554Z,1012.11
2022-08-11T15:57:46.549Z,1012.15
2022-08-11T15:58:46.473Z,1012.10
2022-08-11T15:59:46.501Z,1012.13
2022-08-11T16:00:46.545Z,1012.13
2022-08-11T16:01:46.571Z,1012.07
2022-08-11T16:02:46.417Z,1012.10
2022-08-11T16:04:06.067Z,1012.06
2022-08-11T16:04:46.394Z,1012.10
2022-08-11T16:05:53.223Z,1012.07
2022-08-11T16:06:49.342Z,1012.06
2022-08-11T16:07:46.391Z,1012.02
2022-08-11T16:08:46.370Z,1012.04
2022-08-11T16:09:47.508Z,1012.03
2022-08-11T16:10:46.311Z,1012.03
2022-08-11T16:11:46.384Z,1011.98
2022-08-11T16:12:46.364Z,1011.97
2022-08-11T16:13:46.321Z,1011.96
2022-08-11T16:14:46.782Z,1011.94
2022-08-11T16:15:46.306Z,1011.95
2022-08-11T16:16:46.327Z,1011.92
2022-08-11T16:17:46.361Z,1011.94
2022-08-11T16:18:46.286Z,1011.93
2022-08-11T16:19:46.388Z,1011.89
2022-08-11T16:20:46.179Z,1011.88
2022-08-11T16:21:46.237Z,1011.88
2022-08-11T16:22:57.190Z,1011.93
2022-08-11T16:23:46.190Z,1011.88
2022-08-11T16:27:03.404Z,1011.86
2022-08-11T16:27:14.569Z,1011.86
2022-08-11T16:27:23.873Z,1011.81
2022-08-11T16:28:19.488Z,1011.82
2022-08-11T16:29:19.919Z,1011.82
2022-08-11T16:30:19.628Z,1011.79
2022-08-11T16:31:19.540Z,1011.81
2022-08-11T16:32:19.690Z,1011.78
2022-08-11T16:33:49.783Z,1011.80
2022-08-11T16:34:23.399Z,1011.80
2022-08-11T16:35:19.411Z,1011.81
2022-08-11T16:36:19.438Z,1011.81
2022-08-11T16:37:19.369Z,1011.83
2022-08-11T16:38:19.424Z,1011.82
2022-08-11T16:39:19.486Z,1011.80
2022-08-11T16:40:19.349Z,1011.82
2022-08-11T16:41:19.335Z,1011.80
2022-08-11T16:43:05.265Z,1011.83
2022-08-11T16:43:19.576Z,1011.79
2022-08-11T16:44:19.310Z,1011.77
2022-08-11T16:45:19.263Z,1011.78
2022-08-11T16:46:19.348Z,1011.77
2022-08-11T16:48:01.956Z,1011.79
2022-08-11T16:48:38.814Z,1011.74
2022-08-11T16:49:19.287Z,1011.77
2022-08-11T16:50:19.198Z,1011.75
2022-08-11T16:51:19.186Z,1011.70
2022-08-11T16:52:19.179Z,1011.71
2022-08-11T16:53:19.200Z,1011.71
2022-08-11T16:54:19.222Z,1011.68
2022-08-11T16:55:51.438Z,1011.70
2022-08-11T16:56:19.130Z,1011.73
2022-08-11T16:57:20.044Z,1011.73
2022-08-11T16:58:19.194Z,1011.76
2022-08-11T16:59:19.133Z,1011.76
2022-08-11T17:00:19.079Z,1011.74
2022-08-11T17:01:19.157Z,1011.70
2022-08-11T17:02:19.082Z,1011.76
2022-08-11T17:03:19.039Z,1011.76
2022-08-11T17:04:19.065Z,1011.78
2022-08-11T17:05:19.037Z,1011.77
2022-08-11T17:06:19.035Z,1011.74
2022-08-11T17:07:23.810Z,1011.74
2022-08-11T17:08:19.003Z,1011.73
2022-08-11T17:09:19.025Z,1011.75
2022-08-11T17:10:31.339Z,1011.73
2022-08-11T17:11:19.001Z,1011.72
2022-08-11T17:12:18.925Z,1011.71
2022-08-11T17:13:18.967Z,1011.68
2022-08-11T17:14:18.886Z,1011.72
2022-08-11T17:15:18.947Z,1011.68
2022-08-11T17:16:19.007Z,1011.73
2022-08-11T17:17:18.880Z,1011.71
2022-08-11T17:18:18.868Z,1011.72
2022-08-11T17:19:18.854Z,1011.69
2022-08-11T17:20:45.663Z,1011.70
2022-08-11T17:21:18.872Z,1011.69
2022-08-11T17:22:18.830Z,1011.69
2022-08-11T17:23:18.783Z,1011.64
2022-08-11T17:24:18.817Z,1011.66
2022-08-11T17:25:18.774Z,1011.66
2022-08-11T17:26:18.737Z,1011.66
2022-08-11T17:27:18.732Z,1011.66
2022-08-11T17:28:18.744Z,1011.64
2022-08-11T17:29:18.686Z,1011.64
2022-08-11T17:30:18.738Z,1011.67
2022-08-11T17:31:22.789Z,1011.64
2022-08-11T17:32:18.688Z,1011.65
2022-08-11T17:33:18.724Z,1011.65
2022-08-11T17:34:18.762Z,1011.64
2022-08-11T17:35:18.624Z,1011.64
2022-08-11T17:36:18.613Z,1011.60
2022-08-11T17:37:18.599Z,1011.63
2022-08-11T17:38:18.587Z,1011.60
2022-08-11T17:39:18.710Z,1011.63
2022-08-11T17:40:18.565Z,1011.60
2022-08-11T17:41:23.227Z,1011.63
2022-08-11T17:42:18.549Z,1011.57
2022-08-11T17:43:18.517Z,1011.57
2022-08-11T17:44:18.505Z,1011.57
2022-08-11T17:45:18.486Z,1011.59
2022-08-11T17:46:18.490Z,1011.61
2022-08-11T17:47:18.460Z,1011.61
2022-08-11T17:48:18.442Z,1011.59
2022-08-11T17:49:18.445Z,1011.56
2022-08-11T17:50:18.655Z,1011.59
2022-08-11T17:51:18.533Z,1011.63
2022-08-11T17:52:18.483Z,1011.61
2022-08-11T17:53:18.554Z,1011.59
2022-08-11T17:54:24.798Z,1011.59
2022-08-11T17:55:18.368Z,1011.61
2022-08-11T17:56:18.334Z,1011.60
2022-08-11T17:57:20.131Z,1011.59
2022-08-11T17:58:18.363Z,1011.61
2022-08-11T17:59:18.377Z,1011.63
2022-08-11T18:00:18.620Z,1011.62
2022-08-11T18:01:18.318Z,1011.60
2022-08-11T18:02:18.309Z,1011.60
2022-08-11T18:03:18.254Z,1011.59
2022-08-11T18:04:18.384Z,1011.59
2022-08-11T18:05:18.292Z,1011.61
2022-08-11T18:06:18.465Z,1011.56
2022-08-11T18:07:18.296Z,1011.61
2022-08-11T18:08:18.175Z,1011.59
2022-08-11T18:09:18.202Z,1011.63
2022-08-11T18:10:18.199Z,1011.63
2022-08-11T18:12:06.767Z,1011.63
2022-08-11T18:12:18.173Z,1011.62
2022-08-11T18:13:18.120Z,1011.67
2022-08-11T18:14:18.247Z,1011.70
2022-08-11T18:15:18.160Z,1011.69
2022-08-11T18:16:18.140Z,1011.72
2022-08-11T18:17:18.160Z,1011.66
2022-08-11T18:18:18.145Z,1011.67
2022-08-11T18:19:18.118Z,1011.71
2022-08-11T18:20:18.084Z,1011.70
2022-08-11T18:21:18.060Z,1011.70
2022-08-11T18:22:18.023Z,1011.70
2022-08-11T18:23:18.027Z,1011.68
2022-08-11T18:24:18.041Z,1011.70
2022-08-11T18:25:17.991Z,1011.70
2022-08-11T18:26:17.999Z,1011.74
2022-08-11T18:27:17.982Z,1011.73
2022-08-11T18:28:18.840Z,1011.74
2022-08-11T18:29:17.944Z,1011.73
2022-08-11T18:30:17.932Z,1011.79
2022-08-11T18:31:17.922Z,1011.74
2022-08-11T18:32:21.884Z,1011.77
2022-08-11T18:33:44.677Z,1011.70
2022-08-11T18:34:17.907Z,1011.74
2022-08-11T18:35:17.852Z,1011.77
2022-08-11T18:36:17.796Z,1011.75
2022-08-11T18:37:20.102Z,1011.74
2022-08-11T18:38:17.803Z,1011.78
2022-08-11T18:39:17.898Z,1011.77
2022-08-11T18:40:17.763Z,1011.78
2022-08-11T18:41:17.757Z,1011.81
2022-08-11T18:42:28.743Z,1011.82
2022-08-11T18:43:17.766Z,1011.80
2022-08-11T18:44:17.717Z,1011.78
2022-08-11T18:45:17.718Z,1011.78
2022-08-11T18:46:17.911Z,1011.78
2022-08-11T18:47:17.724Z,1011.82
2022-08-11T18:52:14.891Z,1011.81
2022-08-11T18:53:13.556Z,1011.82
2022-08-11T18:54:13.549Z,1011.83
2022-08-11T18:55:34.524Z,1011.86
2022-08-11T18:56:36.653Z,1011.84
2022-08-11T19:20:17.763Z,1012.09
2022-08-11T19:21:18.694Z,1012.05
2022-08-11T19:22:18.758Z,1012.09
2022-08-11T19:23:18.684Z,1012.09
2022-08-11T19:24:18.718Z,1012.09
2022-08-11T19:25:22.128Z,1012.07
2022-08-11T19:26:18.777Z,1012.08
2022-08-11T19:27:18.873Z,1012.09
2022-08-11T19:28:18.608Z,1012.10
2022-08-11T19:30:06.935Z,1012.06
2022-08-11T19:30:18.668Z,1012.11
2022-08-11T19:31:18.569Z,1012.13
2022-08-11T19:32:18.538Z,1012.12
2022-08-11T19:34:00.446Z,1012.10
2022-08-11T19:34:18.554Z,1012.13
2022-08-11T19:35:18.758Z,1012.11
2022-08-11T19:36:18.488Z,1012.12
2022-08-11T19:37:24.108Z,1012.15
2022-08-11T19:38:18.515Z,1012.18
2022-08-11T19:39:18.503Z,1012.18
2022-08-11T19:40:18.459Z,1012.17
2022-08-11T19:41:52.178Z,1012.17
2022-08-11T19:42:18.408Z,1012.17
2022-08-11T19:43:23.843Z,1012.19
2022-08-11T19:44:18.390Z,1012.19
2022-08-11T19:45:18.913Z,1012.21
2022-08-11T19:46:18.414Z,1012.17
2022-08-11T19:47:18.455Z,1012.23
2022-08-11T19:48:31.798Z,1012.18
2022-08-11T19:49:18.333Z,1012.17
2022-08-11T19:50:24.307Z,1012.20
2022-08-11T19:51:18.320Z,1012.23
2022-08-11T19:52:18.300Z,1012.26
2022-08-11T19:53:18.290Z,1012.26
2022-08-11T19:54:18.269Z,1012.24
2022-08-11T19:55:18.464Z,1012.27
2022-08-11T19:56:18.243Z,1012.27
2022-08-11T19:57:18.263Z,1012.28
2022-08-11T19:58:18.239Z,1012.23
2022-08-11T19:59:18.190Z,1012.23
2022-08-11T20:00:18.220Z,1012.26
2022-08-11T20:01:18.260Z,1012.27
2022-08-11T20:02:18.192Z,1012.27
2022-08-11T20:03:18.152Z,1012.30
2022-08-11T20:04:18.153Z,1012.25
2022-08-11T20:05:18.107Z,1012.30
2022-08-11T20:06:18.130Z,1012.29
2022-08-11T20:07:18.123Z,1012.30
2022-08-11T20:08:18.610Z,1012.28
2022-08-11T20:09:18.085Z,1012.28
2022-08-11T20:10:18.036Z,1012.32
2022-08-11T20:11:18.237Z,1012.31
2022-08-11T20:12:18.012Z,1012.32
2022-08-11T20:13:21.329Z,1012.33
2022-08-11T20:14:17.998Z,1012.31
2022-08-11T20:15:17.990Z,1012.34
2022-08-11T20:16:17.981Z,1012.35
2022-08-11T20:17:17.970Z,1012.32
2022-08-11T20:18:17.943Z,1012.29
2022-08-11T20:19:18.014Z,1012.34
2022-08-11T20:20:17.976Z,1012.32
2022-08-11T20:21:25.359Z,1012.31
2022-08-11T20:22:17.922Z,1012.40
2022-08-11T20:23:17.871Z,1012.34
2022-08-11T20:24:17.869Z,1012.34
2022-08-11T20:25:17.911Z,1012.34
2022-08-11T20:26:30.894Z,1012.33
2022-08-11T20:27:18.793Z,1012.35
2022-08-11T20:28:17.903Z,1012.33
2022-08-11T20:29:17.826Z,1012.34
2022-08-11T20:30:17.776Z,1012.42
2022-08-11T20:31:17.790Z,1012.34
2022-08-11T20:32:17.769Z,1012.38
2022-08-11T20:33:17.780Z,1012.37
2022-08-11T20:34:17.715Z,1012.34
2022-08-11T20:35:17.718Z,1012.40
2022-08-11T20:36:17.719Z,1012.37
2022-08-11T20:37:17.685Z,1012.37
2022-08-11T20:38:17.670Z,1012.35
2022-08-11T20:39:17.730Z,1012.35
2022-08-11T20:40:17.683Z,1012.30
2022-08-11T20:41:17.667Z,1012.30
2022-08-11T20:42:17.665Z,1012.30
2022-08-11T20:44:06.147Z,1012.36
2022-08-11T20:44:17.645Z,1012.30
2022-08-11T20:45:17.584Z,1012.33
2022-08-11T20:46:17.594Z,1012.31
2022-08-11T20:47:17.595Z,1012.31
2022-08-11T20:48:17.543Z,1012.32
2022-08-11T20:49:16.568Z,1012.35
2022-08-11T20:50:19.447Z,1012.34
2022-08-11T20:51:17.560Z,1012.31
2022-08-11T20:52:17.559Z,1012.33
2022-08-11T20:53:17.518Z,1012.39
2022-08-11T20:54:17.462Z,1012.35
2022-08-11T20:55:26.122Z,1012.35
2022-08-11T20:56:17.477Z,1012.35
2022-08-11T20:57:17.471Z,1012.34
2022-08-11T20:58:18.361Z,1012.33
2022-08-11T20:59:18.929Z,1012.33
2022-08-11T21:00:17.417Z,1012.39
2022-08-11T21:01:24.193Z,1012.34
2022-08-11T21:02:17.439Z,1012.37
2022-08-11T21:03:35.430Z,1012.42
2022-08-11T21:04:17.333Z,1012.40
2022-08-11T21:05:19.748Z,1012.39
2022-08-11T21:06:31.407Z,1012.40
2022-08-11T21:07:39.348Z,1012.41
2022-08-11T21:08:17.277Z,1012.42
2022-08-11T21:09:19.863Z,1012.43
2022-08-11T21:10:23.753Z,1012.38
2022-08-11T21:11:27.880Z,1012.41
2022-08-11T21:12:17.296Z,1012.47
2022-08-11T21:13:17.218Z,1012.45
2022-08-11T21:55:14.997Z,1012.46
2022-08-11T21:56:16.008Z,1012.49
2022-08-11T21:57:16.041Z,1012.47
2022-08-11T21:58:15.962Z,1012.48
2022-08-11T21:59:15.910Z,1012.49
2022-08-11T22:00:16.628Z,1012.49
2022-08-11T22:01:16.012Z,1012.49
2022-08-11T22:02:15.923Z,1012.54
2022-08-11T22:03:15.938Z,1012.51
2022-08-11T22:04:15.925Z,1012.53
2022-08-11T22:05:15.923Z,1012.56
2022-08-11T22:06:15.927Z,1012.53
2022-08-11T22:07:15.861Z,1012.51
2022-08-11T22:08:15.822Z,1012.54
2022-08-11T22:09:15.815Z,1012.54
2022-08-11T22:10:40.341Z,1012.50
2022-08-11T22:11:15.841Z,1012.54
2022-08-11T22:12:33.545Z,1012.48
2022-08-11T22:13:15.767Z,1012.50
2022-08-11T22:14:15.830Z,1012.49
2022-08-11T22:15:15.745Z,1012.50
2022-08-11T22:16:15.731Z,1012.48
2022-08-11T22:17:15.680Z,1012.48
2022-08-11T22:18:15.672Z,1012.51
2022-08-11T22:19:15.695Z,1012.45
2022-08-11T22:20:15.680Z,1012.51
2022-08-11T22:21:59.569Z,1012.48
2022-08-11T22:22:15.630Z,1012.43
2022-08-11T22:23:15.667Z,1012.48
2022-08-11T22:24:18.291Z,1012.41
2022-08-11T22:25:16.460Z,1012.41
2022-08-11T22:26:15.697Z,1012.39
2022-08-11T22:27:15.567Z,1012.40
2022-08-11T22:28:15.577Z,1012.41
2022-08-11T22:29:15.589Z,1012.41
2022-08-11T22:30:15.532Z,1012.39
2022-08-11T22:31:15.515Z,1012.39
2022-08-11T22:32:14.510Z,1012.39
2022-08-11T22:33:15.523Z,1012.36
2022-08-11T22:34:15.508Z,1012.40
2022-08-11T22:35:15.479Z,1012.40
2022-08-11T22:36:15.445Z,1012.39
2022-08-11T22:37:27.137Z,1012.38
2022-08-11T22:38:15.427Z,1012.37
2022-08-11T22:39:15.468Z,1012.42
2022-08-11T22:40:15.492Z,1012.39
2022-08-11T22:41:15.471Z,1012.39
2022-08-11T22:42:15.391Z,1012.40
2022-08-11T22:43:15.409Z,1012.45
2022-08-11T22:44:15.416Z,1012.43
2022-08-11T22:45:15.397Z,1012.43
2022-08-11T22:46:15.363Z,1012.42
2022-08-11T22:47:15.373Z,1012.44
2022-08-11T22:48:15.298Z,1012.42
2022-08-11T22:49:15.314Z,1012.45
2022-08-11T22:50:15.329Z,1012.46
2022-08-11T22:51:15.262Z,1012.39
2022-08-11T22:52:15.265Z,1012.42
2022-08-11T22:53:15.249Z,1012.40
2022-08-11T22:54:15.238Z,1012.43
2022-08-11T22:55:15.218Z,1012.42
2022-08-11T22:56:15.222Z,1012.42
2022-08-11T22:57:15.203Z,1012.45
2022-08-11T22:58:15.190Z,1012.45
2022-08-11T22:59:15.154Z,1012.42
2022-08-11T23:00:15.163Z,1012.41
2022-08-11T23:01:15.224Z,1012.41
2022-08-11T23:02:15.107Z,1012.41
2022-08-11T23:03:36.992Z,1012.46
2022-08-11T23:04:15.338Z,1012.41
2022-08-11T23:05:15.157Z,1012.45
2022-08-11T23:06:15.079Z,1012.43
2022-08-11T23:07:15.040Z,1012.40
2022-08-11T23:08:15.057Z,1012.44
2022-08-11T23:09:15.134Z,1012.42
2022-08-11T23:10:15.010Z,1012.44
2022-08-11T23:11:15.010Z,1012.47
2022-08-11T23:12:14.978Z,1012.45
2022-08-11T23:13:14.992Z,1012.50
2022-08-11T23:14:14.955Z,1012.52
2022-08-11T23:15:14.998Z,1012.54
2022-08-11T23:16:14.920Z,1012.49
2022-08-11T23:17:14.914Z,1012.48
2022-08-11T23:18:14.910Z,1012.47
2022-08-11T23:19:14.897Z,1012.52
2022-08-11T23:20:25.153Z,1012.50
2022-08-11T23:21:14.923Z,1012.46
2022-08-11T23:22:15.021Z,1012.44
2022-08-11T23:23:14.836Z,1012.47
2022-08-11T23:24:14.907Z,1012.42
2022-08-11T23:25:17.744Z,1012.42
2022-08-11T23:26:14.880Z,1012.42
2022-08-11T23:27:14.818Z,1012.38
2022-08-11T23:28:14.835Z,1012.37
2022-08-11T23:29:14.781Z,1012.40
2022-08-11T23:30:14.758Z,1012.36
2022-08-11T23:31:14.769Z,1012.38
2022-08-11T23:32:14.765Z,1012.37
2022-08-11T23:33:14.755Z,1012.35
2022-08-11T23:34:39.407Z,1012.34
2022-08-11T23:35:38.939Z,1012.38
2022-08-11T23:36:36.063Z,1012.40
2022-08-11T23:37:14.754Z,1012.37
2022-08-11T23:38:14.652Z,1012.34
2022-08-11T23:39:14.733Z,1012.38
2022-08-11T23:40:14.610Z,1012.38
2022-08-11T23:41:14.646Z,1012.39
2022-08-11T23:42:14.624Z,1012.36
2022-08-11T23:43:14.586Z,1012.37
2022-08-11T23:44:14.579Z,1012.39
2022-08-11T23:45:15.005Z,1012.38
2022-08-11T23:46:14.551Z,1012.38
2022-08-11T23:47:14.538Z,1012.37
2022-08-11T23:48:14.562Z,1012.39
2022-08-11T23:49:14.527Z,1012.34
2022-08-11T23:50:16.246Z,1012.30
2022-08-11T23:51:14.488Z,1012.30
2022-08-11T23:52:14.537Z,1012.30
2022-08-11T23:53:14.454Z,1012.30
2022-08-11T23:54:14.499Z,1012.30
2022-08-11T23:55:14.421Z,1012.32
2022-08-11T23:56:14.433Z,1012.30
2022-08-11T23:57:14.406Z,1012.31
2022-08-11T23:58:14.375Z,1012.32
2022-08-11T23:59:14.417Z,1012.28
